sensor_id;sensor_type;location;lat;lon;timestamp;P1;durP1;ratioP1;P2;durP2;ratioP2
39620;SDS011;25309;48.686;9.170;2023-11-21T00:00:02;4.97;;;1.90;;
39620;SDS011;25309;48.686;9.170;2023-11-21T00:02:38;7.23;;;1.90;;
39620;SDS011;25309;48.686;9.170;2023-11-21T00:05:08;6.30;;;2.20;;
39620;SDS011;25309;48.686;9.170;2023-11-21T00:07:36;4.87;;;2.20;;
39620;SDS011;25309;48.686;9.170;2023-11-21T00:10:04;5.67;;;2.07;;
39620;SDS011;25309;48.686;9.170;2023-11-21T00:12:32;5.17;;;1.70;;
39620;SDS011;25309;48.686;9.170;2023-11-21T00:14:59;5.30;;;1.90;;
39620;SDS011;25309;48.686;9.170;2023-11-21T00:17:27;5.13;;;1.77;;
39620;SDS011;25309;48.686;9.170;2023-11-21T00:19:55;6.00;;;1.90;;
39620;SDS011;25309;48.686;9.170;2023-11-21T00:22:23;5.97;;;1.87;;
39620;SDS011;25309;48.686;9.170;2023-11-21T00:24:50;4.33;;;1.87;;
39620;SDS011;25309;48.686;9.170;2023-11-21T00:27:17;7.10;;;2.03;;
39620;SDS011;25309;48.686;9.170;2023-11-21T00:29:44;4.17;;;1.77;;
39620;SDS011;25309;48.686;9.170;2023-11-21T00:32:11;4.27;;;1.90;;
39620;SDS011;25309;48.686;9.170;2023-11-21T00:34:38;5.70;;;1.93;;
39620;SDS011;25309;48.686;9.170;2023-11-21T00:37:06;7.77;;;2.40;;
39620;SDS011;25309;48.686;9.170;2023-11-21T00:39:35;5.00;;;2.00;;
39620;SDS011;25309;48.686;9.170;2023-11-21T00:42:02;7.57;;;2.00;;
39620;SDS011;25309;48.686;9.170;2023-11-21T00:44:31;6.10;;;2.33;;
39620;SDS011;25309;48.686;9.170;2023-11-21T00:46:58;6.80;;;2.13;;
39620;SDS011;25309;48.686;9.170;2023-11-21T00:49:25;4.27;;;2.03;;
39620;SDS011;25309;48.686;9.170;2023-11-21T00:51:54;7.37;;;1.93;;
39620;SDS011;25309;48.686;9.170;2023-11-21T00:54:21;4.50;;;1.70;;
39620;SDS011;25309;48.686;9.170;2023-11-21T00:56:50;4.90;;;1.80;;
39620;SDS011;25309;48.686;9.170;2023-11-21T00:59:17;5.17;;;2.10;;
39620;SDS011;25309;48.686;9.170;2023-11-21T01:01:44;6.37;;;1.83;;
39620;SDS011;25309;48.686;9.170;2023-11-21T01:04:11;4.50;;;1.63;;
39620;SDS011;25309;48.686;9.170;2023-11-21T01:06:39;4.87;;;1.90;;
39620;SDS011;25309;48.686;9.170;2023-11-21T01:09:08;4.30;;;1.50;;
39620;SDS011;25309;48.686;9.170;2023-11-21T01:11:35;3.73;;;1.53;;
39620;SDS011;25309;48.686;9.170;2023-11-21T01:14:05;6.23;;;1.80;;
39620;SDS011;25309;48.686;9.170;2023-11-21T01:16:33;4.83;;;1.80;;
39620;SDS011;25309;48.686;9.170;2023-11-21T01:19:00;4.70;;;1.60;;
39620;SDS011;25309;48.686;9.170;2023-11-21T01:21:28;4.13;;;1.70;;
39620;SDS011;25309;48.686;9.170;2023-11-21T01:23:56;5.90;;;1.90;;
39620;SDS011;25309;48.686;9.170;2023-11-21T01:26:23;3.93;;;1.70;;
39620;SDS011;25309;48.686;9.170;2023-11-21T01:28:50;3.53;;;1.80;;
39620;SDS011;25309;48.686;9.170;2023-11-21T01:31:18;4.47;;;1.90;;
39620;SDS011;25309;48.686;9.170;2023-11-21T01:33:47;5.07;;;1.47;;
39620;SDS011;25309;48.686;9.170;2023-11-21T01:36:15;4.37;;;1.40;;
39620;SDS011;25309;48.686;9.170;2023-11-21T01:38:44;5.53;;;1.90;;
39620;SDS011;25309;48.686;9.170;2023-11-21T01:41:12;5.13;;;1.90;;
39620;SDS011;25309;48.686;9.170;2023-11-21T01:43:41;3.30;;;1.53;;
39620;SDS011;25309;48.686;9.170;2023-11-21T01:46:08;3.63;;;1.70;;
39620;SDS011;25309;48.686;9.170;2023-11-21T01:48:37;5.70;;;1.80;;
39620;SDS011;25309;48.686;9.170;2023-11-21T01:51:05;4.27;;;1.30;;
39620;SDS011;25309;48.686;9.170;2023-11-21T01:53:32;4.13;;;1.40;;
39620;SDS011;25309;48.686;9.170;2023-11-21T01:55:59;4.73;;;1.47;;
39620;SDS011;25309;48.686;9.170;2023-11-21T01:58:26;2.80;;;1.23;;
39620;SDS011;25309;48.686;9.170;2023-11-21T02:00:53;3.70;;;1.40;;
39620;SDS011;25309;48.686;9.170;2023-11-21T02:03:21;4.33;;;1.60;;
39620;SDS011;25309;48.686;9.170;2023-11-21T02:05:50;1.97;;;1.03;;
39620;SDS011;25309;48.686;9.170;2023-11-21T02:08:17;3.77;;;1.27;;
39620;SDS011;25309;48.686;9.170;2023-11-21T02:10:45;3.77;;;1.40;;
39620;SDS011;25309;48.686;9.170;2023-11-21T02:13:14;2.30;;;1.27;;
39620;SDS011;25309;48.686;9.170;2023-11-21T02:15:43;4.27;;;1.33;;
39620;SDS011;25309;48.686;9.170;2023-11-21T02:18:10;2.43;;;1.20;;
39620;SDS011;25309;48.686;9.170;2023-11-21T02:20:37;3.20;;;1.23;;
39620;SDS011;25309;48.686;9.170;2023-11-21T02:23:09;3.03;;;1.10;;
39620;SDS011;25309;48.686;9.170;2023-11-21T02:25:36;5.47;;;1.70;;
39620;SDS011;25309;48.686;9.170;2023-11-21T02:28:03;3.17;;;1.30;;
39620;SDS011;25309;48.686;9.170;2023-11-21T02:30:31;3.87;;;1.37;;
39620;SDS011;25309;48.686;9.170;2023-11-21T02:32:59;3.93;;;1.20;;
39620;SDS011;25309;48.686;9.170;2023-11-21T02:35:26;3.00;;;1.20;;
39620;SDS011;25309;48.686;9.170;2023-11-21T02:37:53;4.57;;;1.30;;
39620;SDS011;25309;48.686;9.170;2023-11-21T02:40:22;2.80;;;1.27;;
39620;SDS011;25309;48.686;9.170;2023-11-21T02:42:51;2.77;;;1.10;;
39620;SDS011;25309;48.686;9.170;2023-11-21T02:45:18;2.77;;;1.40;;
39620;SDS011;25309;48.686;9.170;2023-11-21T02:47:47;3.93;;;1.83;;
39620;SDS011;25309;48.686;9.170;2023-11-21T02:50:16;2.47;;;1.20;;
39620;SDS011;25309;48.686;9.170;2023-11-21T02:52:46;3.00;;;1.27;;
39620;SDS011;25309;48.686;9.170;2023-11-21T02:55:13;3.23;;;1.03;;
39620;SDS011;25309;48.686;9.170;2023-11-21T02:57:42;1.97;;;0.90;;
39620;SDS011;25309;48.686;9.170;2023-11-21T03:00:09;1.60;;;0.90;;
39620;SDS011;25309;48.686;9.170;2023-11-21T03:02:39;2.67;;;1.10;;
39620;SDS011;25309;48.686;9.170;2023-11-21T03:05:07;3.10;;;1.10;;
39620;SDS011;25309;48.686;9.170;2023-11-21T03:07:36;2.30;;;1.23;;
39620;SDS011;25309;48.686;9.170;2023-11-21T03:10:04;2.73;;;1.30;;
39620;SDS011;25309;48.686;9.170;2023-11-21T03:12:33;2.33;;;1.30;;
39620;SDS011;25309;48.686;9.170;2023-11-21T03:15:01;4.20;;;0.90;;
39620;SDS011;25309;48.686;9.170;2023-11-21T03:17:29;3.07;;;0.80;;
39620;SDS011;25309;48.686;9.170;2023-11-21T03:19:56;2.37;;;0.93;;
39620;SDS011;25309;48.686;9.170;2023-11-21T03:22:23;2.43;;;0.90;;
39620;SDS011;25309;48.686;9.170;2023-11-21T03:24:50;2.20;;;0.87;;
39620;SDS011;25309;48.686;9.170;2023-11-21T03:27:17;0.97;;;0.67;;
39620;SDS011;25309;48.686;9.170;2023-11-21T03:29:44;3.67;;;0.73;;
39620;SDS011;25309;48.686;9.170;2023-11-21T03:32:14;2.17;;;0.83;;
39620;SDS011;25309;48.686;9.170;2023-11-21T03:34:52;2.97;;;1.07;;
39620;SDS011;25309;48.686;9.170;2023-11-21T03:37:22;1.90;;;0.80;;
39620;SDS011;25309;48.686;9.170;2023-11-21T03:39:49;3.87;;;0.80;;
39620;SDS011;25309;48.686;9.170;2023-11-21T03:42:16;2.87;;;0.60;;
39620;SDS011;25309;48.686;9.170;2023-11-21T03:44:43;1.60;;;0.80;;
39620;SDS011;25309;48.686;9.170;2023-11-21T03:47:10;2.10;;;0.80;;
39620;SDS011;25309;48.686;9.170;2023-11-21T03:49:39;1.07;;;0.67;;
39620;SDS011;25309;48.686;9.170;2023-11-21T03:52:06;1.77;;;0.60;;
39620;SDS011;25309;48.686;9.170;2023-11-21T03:54:34;2.60;;;0.80;;
39620;SDS011;25309;48.686;9.170;2023-11-21T03:57:01;1.80;;;0.80;;
39620;SDS011;25309;48.686;9.170;2023-11-21T03:59:28;1.73;;;0.80;;
39620;SDS011;25309;48.686;9.170;2023-11-21T04:01:55;2.67;;;0.67;;
39620;SDS011;25309;48.686;9.170;2023-11-21T04:04:23;2.10;;;0.60;;
39620;SDS011;25309;48.686;9.170;2023-11-21T04:06:51;1.83;;;0.60;;
39620;SDS011;25309;48.686;9.170;2023-11-21T04:09:18;1.43;;;0.60;;
39620;SDS011;25309;48.686;9.170;2023-11-21T04:11:45;1.20;;;0.40;;
39620;SDS011;25309;48.686;9.170;2023-11-21T04:14:12;0.80;;;0.50;;
39620;SDS011;25309;48.686;9.170;2023-11-21T04:16:40;2.17;;;0.60;;
39620;SDS011;25309;48.686;9.170;2023-11-21T04:19:08;1.93;;;0.50;;
39620;SDS011;25309;48.686;9.170;2023-11-21T04:21:41;1.90;;;0.67;;
39620;SDS011;25309;48.686;9.170;2023-11-21T04:24:10;0.90;;;0.43;;
39620;SDS011;25309;48.686;9.170;2023-11-21T04:26:37;2.47;;;0.60;;
39620;SDS011;25309;48.686;9.170;2023-11-21T04:29:04;2.37;;;0.60;;
39620;SDS011;25309;48.686;9.170;2023-11-21T04:31:31;2.40;;;0.60;;
39620;SDS011;25309;48.686;9.170;2023-11-21T04:33:58;1.63;;;0.43;;
39620;SDS011;25309;48.686;9.170;2023-11-21T04:36:25;1.27;;;0.57;;
39620;SDS011;25309;48.686;9.170;2023-11-21T04:38:52;2.53;;;0.50;;
39620;SDS011;25309;48.686;9.170;2023-11-21T04:41:21;0.93;;;0.40;;
39620;SDS011;25309;48.686;9.170;2023-11-21T04:43:48;1.13;;;0.50;;
39620;SDS011;25309;48.686;9.170;2023-11-21T04:46:15;1.27;;;0.47;;
39620;SDS011;25309;48.686;9.170;2023-11-21T04:48:42;2.73;;;0.60;;
39620;SDS011;25309;48.686;9.170;2023-11-21T04:51:10;1.00;;;0.47;;
39620;SDS011;25309;48.686;9.170;2023-11-21T04:53:39;0.57;;;0.40;;
39620;SDS011;25309;48.686;9.170;2023-11-21T04:56:07;4.00;;;0.63;;
39620;SDS011;25309;48.686;9.170;2023-11-21T04:58:35;2.27;;;0.57;;
39620;SDS011;25309;48.686;9.170;2023-11-21T05:01:03;1.83;;;0.67;;
39620;SDS011;25309;48.686;9.170;2023-11-21T05:03:34;0.83;;;0.50;;
39620;SDS011;25309;48.686;9.170;2023-11-21T05:06:01;1.63;;;0.70;;
39620;SDS011;25309;48.686;9.170;2023-11-21T05:08:28;1.47;;;0.50;;
39620;SDS011;25309;48.686;9.170;2023-11-21T05:10:55;0.90;;;0.40;;
39620;SDS011;25309;48.686;9.170;2023-11-21T05:13:22;1.00;;;0.47;;
39620;SDS011;25309;48.686;9.170;2023-11-21T05:15:55;0.83;;;0.30;;
39620;SDS011;25309;48.686;9.170;2023-11-21T05:18:25;1.90;;;0.50;;
39620;SDS011;25309;48.686;9.170;2023-11-21T05:20:53;1.07;;;0.50;;
39620;SDS011;25309;48.686;9.170;2023-11-21T05:23:20;2.33;;;0.50;;
39620;SDS011;25309;48.686;9.170;2023-11-21T05:25:47;1.10;;;0.60;;
39620;SDS011;25309;48.686;9.170;2023-11-21T05:28:14;0.90;;;0.40;;
39620;SDS011;25309;48.686;9.170;2023-11-21T05:30:41;1.90;;;0.50;;
39620;SDS011;25309;48.686;9.170;2023-11-21T05:33:09;1.20;;;0.53;;
39620;SDS011;25309;48.686;9.170;2023-11-21T05:35:36;1.63;;;0.50;;
39620;SDS011;25309;48.686;9.170;2023-11-21T05:38:03;1.03;;;0.60;;
39620;SDS011;25309;48.686;9.170;2023-11-21T05:40:31;1.17;;;0.33;;
39620;SDS011;25309;48.686;9.170;2023-11-21T05:42:58;1.17;;;0.57;;
39620;SDS011;25309;48.686;9.170;2023-11-21T05:45:25;1.00;;;0.40;;
39620;SDS011;25309;48.686;9.170;2023-11-21T05:47:53;0.80;;;0.43;;
39620;SDS011;25309;48.686;9.170;2023-11-21T05:50:21;1.83;;;0.43;;
39620;SDS011;25309;48.686;9.170;2023-11-21T05:52:49;2.13;;;0.37;;
39620;SDS011;25309;48.686;9.170;2023-11-21T05:55:16;0.70;;;0.50;;
39620;SDS011;25309;48.686;9.170;2023-11-21T05:57:44;1.60;;;0.80;;
39620;SDS011;25309;48.686;9.170;2023-11-21T06:00:11;1.63;;;0.50;;
39620;SDS011;25309;48.686;9.170;2023-11-21T06:02:47;1.70;;;0.60;;
39620;SDS011;25309;48.686;9.170;2023-11-21T06:05:17;1.30;;;0.80;;
39620;SDS011;25309;48.686;9.170;2023-11-21T06:07:47;3.37;;;1.60;;
39620;SDS011;25309;48.686;9.170;2023-11-21T06:10:14;1.67;;;0.97;;
39620;SDS011;25309;48.686;9.170;2023-11-21T06:12:41;2.13;;;0.90;;
39620;SDS011;25309;48.686;9.170;2023-11-21T06:15:10;1.43;;;0.70;;
39620;SDS011;25309;48.686;9.170;2023-11-21T06:17:40;0.97;;;0.60;;
39620;SDS011;25309;48.686;9.170;2023-11-21T06:20:08;2.27;;;0.70;;
39620;SDS011;25309;48.686;9.170;2023-11-21T06:22:37;2.17;;;0.70;;
39620;SDS011;25309;48.686;9.170;2023-11-21T06:25:07;1.00;;;0.60;;
39620;SDS011;25309;48.686;9.170;2023-11-21T06:27:37;0.90;;;0.60;;
39620;SDS011;25309;48.686;9.170;2023-11-21T06:30:05;0.70;;;0.60;;
39620;SDS011;25309;48.686;9.170;2023-11-21T06:32:33;2.33;;;0.70;;
39620;SDS011;25309;48.686;9.170;2023-11-21T06:35:01;3.47;;;0.90;;
39620;SDS011;25309;48.686;9.170;2023-11-21T06:37:28;0.90;;;0.50;;
39620;SDS011;25309;48.686;9.170;2023-11-21T06:39:55;2.17;;;0.70;;
39620;SDS011;25309;48.686;9.170;2023-11-21T06:42:25;1.17;;;0.70;;
39620;SDS011;25309;48.686;9.170;2023-11-21T06:44:53;0.70;;;0.70;;
39620;SDS011;25309;48.686;9.170;2023-11-21T06:47:23;1.10;;;0.80;;
39620;SDS011;25309;48.686;9.170;2023-11-21T06:49:56;1.07;;;0.77;;
39620;SDS011;25309;48.686;9.170;2023-11-21T06:52:24;1.50;;;0.97;;
39620;SDS011;25309;48.686;9.170;2023-11-21T06:54:51;1.57;;;0.90;;
39620;SDS011;25309;48.686;9.170;2023-11-21T06:57:18;1.67;;;1.00;;
39620;SDS011;25309;48.686;9.170;2023-11-21T06:59:46;2.57;;;0.80;;
39620;SDS011;25309;48.686;9.170;2023-11-21T07:02:13;1.30;;;1.07;;
39620;SDS011;25309;48.686;9.170;2023-11-21T07:04:40;1.53;;;0.77;;
39620;SDS011;25309;48.686;9.170;2023-11-21T07:07:07;1.07;;;0.90;;
39620;SDS011;25309;48.686;9.170;2023-11-21T07:09:34;1.37;;;0.97;;
39620;SDS011;25309;48.686;9.170;2023-11-21T07:12:01;1.07;;;0.70;;
39620;SDS011;25309;48.686;9.170;2023-11-21T07:14:30;0.97;;;0.70;;
39620;SDS011;25309;48.686;9.170;2023-11-21T07:16:59;1.20;;;0.80;;
39620;SDS011;25309;48.686;9.170;2023-11-21T07:19:27;1.87;;;0.70;;
39620;SDS011;25309;48.686;9.170;2023-11-21T07:21:54;2.10;;;0.80;;
39620;SDS011;25309;48.686;9.170;2023-11-21T07:24:21;1.53;;;0.70;;
39620;SDS011;25309;48.686;9.170;2023-11-21T07:26:53;2.00;;;0.73;;
39620;SDS011;25309;48.686;9.170;2023-11-21T07:29:23;1.20;;;0.63;;
39620;SDS011;25309;48.686;9.170;2023-11-21T07:31:52;1.23;;;0.60;;
39620;SDS011;25309;48.686;9.170;2023-11-21T07:34:20;1.73;;;0.90;;
39620;SDS011;25309;48.686;9.170;2023-11-21T07:36:47;3.33;;;0.90;;
39620;SDS011;25309;48.686;9.170;2023-11-21T07:39:15;1.37;;;1.00;;
39620;SDS011;25309;48.686;9.170;2023-11-21T07:41:42;2.30;;;1.00;;
39620;SDS011;25309;48.686;9.170;2023-11-21T07:44:15;2.00;;;1.20;;
39620;SDS011;25309;48.686;9.170;2023-11-21T07:46:43;2.67;;;1.00;;
39620;SDS011;25309;48.686;9.170;2023-11-21T07:49:12;1.30;;;0.90;;
39620;SDS011;25309;48.686;9.170;2023-11-21T07:51:43;1.80;;;1.10;;
39620;SDS011;25309;48.686;9.170;2023-11-21T07:54:11;1.37;;;0.80;;
39620;SDS011;25309;48.686;9.170;2023-11-21T07:56:38;2.13;;;1.50;;
39620;SDS011;25309;48.686;9.170;2023-11-21T07:59:05;2.00;;;1.40;;
39620;SDS011;25309;48.686;9.170;2023-11-21T08:01:32;4.90;;;2.00;;
39620;SDS011;25309;48.686;9.170;2023-11-21T08:03:59;3.30;;;1.70;;
39620;SDS011;25309;48.686;9.170;2023-11-21T08:06:30;2.63;;;1.20;;
39620;SDS011;25309;48.686;9.170;2023-11-21T08:08:59;3.07;;;1.10;;
39620;SDS011;25309;48.686;9.170;2023-11-21T08:11:26;2.03;;;1.03;;
39620;SDS011;25309;48.686;9.170;2023-11-21T08:13:55;3.50;;;1.10;;
39620;SDS011;25309;48.686;9.170;2023-11-21T08:16:23;1.93;;;1.27;;
39620;SDS011;25309;48.686;9.170;2023-11-21T08:18:50;1.97;;;1.10;;
39620;SDS011;25309;48.686;9.170;2023-11-21T08:21:18;2.57;;;1.20;;
39620;SDS011;25309;48.686;9.170;2023-11-21T08:23:45;2.67;;;1.03;;
39620;SDS011;25309;48.686;9.170;2023-11-21T08:26:16;3.70;;;1.20;;
39620;SDS011;25309;48.686;9.170;2023-11-21T08:28:44;1.07;;;0.97;;
39620;SDS011;25309;48.686;9.170;2023-11-21T08:31:12;1.70;;;1.00;;
39620;SDS011;25309;48.686;9.170;2023-11-21T08:33:41;1.57;;;0.90;;
39620;SDS011;25309;48.686;9.170;2023-11-21T08:36:09;1.07;;;0.80;;
39620;SDS011;25309;48.686;9.170;2023-11-21T08:38:38;2.97;;;1.10;;
39620;SDS011;25309;48.686;9.170;2023-11-21T08:41:05;1.80;;;0.97;;
39620;SDS011;25309;48.686;9.170;2023-11-21T08:43:38;1.47;;;1.10;;
39620;SDS011;25309;48.686;9.170;2023-11-21T08:46:06;2.23;;;1.40;;
39620;SDS011;25309;48.686;9.170;2023-11-21T08:48:35;2.00;;;1.07;;
39620;SDS011;25309;48.686;9.170;2023-11-21T08:51:02;2.80;;;1.03;;
39620;SDS011;25309;48.686;9.170;2023-11-21T08:53:30;1.37;;;1.00;;
39620;SDS011;25309;48.686;9.170;2023-11-21T08:55:57;1.30;;;0.90;;
39620;SDS011;25309;48.686;9.170;2023-11-21T08:58:24;2.53;;;1.13;;
39620;SDS011;25309;48.686;9.170;2023-11-21T09:00:53;2.37;;;1.20;;
39620;SDS011;25309;48.686;9.170;2023-11-21T09:03:20;1.83;;;1.00;;
39620;SDS011;25309;48.686;9.170;2023-11-21T09:05:48;1.77;;;0.90;;
39620;SDS011;25309;48.686;9.170;2023-11-21T09:08:15;1.40;;;1.07;;
39620;SDS011;25309;48.686;9.170;2023-11-21T09:10:42;1.77;;;1.00;;
39620;SDS011;25309;48.686;9.170;2023-11-21T09:13:13;3.60;;;1.10;;
39620;SDS011;25309;48.686;9.170;2023-11-21T09:15:43;2.63;;;0.80;;
39620;SDS011;25309;48.686;9.170;2023-11-21T09:18:14;2.57;;;0.90;;
39620;SDS011;25309;48.686;9.170;2023-11-21T09:20:42;2.47;;;1.10;;
39620;SDS011;25309;48.686;9.170;2023-11-21T09:23:10;1.20;;;1.07;;
39620;SDS011;25309;48.686;9.170;2023-11-21T09:25:38;3.07;;;1.07;;
39620;SDS011;25309;48.686;9.170;2023-11-21T09:28:05;2.50;;;1.13;;
39620;SDS011;25309;48.686;9.170;2023-11-21T09:30:35;2.13;;;0.87;;
39620;SDS011;25309;48.686;9.170;2023-11-21T09:33:03;1.27;;;1.07;;
39620;SDS011;25309;48.686;9.170;2023-11-21T09:35:36;2.93;;;1.20;;
39620;SDS011;25309;48.686;9.170;2023-11-21T09:38:04;2.87;;;1.50;;
39620;SDS011;25309;48.686;9.170;2023-11-21T09:40:38;2.07;;;1.23;;
39620;SDS011;25309;48.686;9.170;2023-11-21T09:43:05;1.93;;;1.33;;
39620;SDS011;25309;48.686;9.170;2023-11-21T09:45:34;1.17;;;1.00;;
39620;SDS011;25309;48.686;9.170;2023-11-21T09:48:02;1.47;;;0.90;;
39620;SDS011;25309;48.686;9.170;2023-11-21T09:50:29;2.43;;;1.20;;
39620;SDS011;25309;48.686;9.170;2023-11-21T09:53:03;2.40;;;1.20;;
39620;SDS011;25309;48.686;9.170;2023-11-21T09:55:38;1.83;;;1.20;;
39620;SDS011;25309;48.686;9.170;2023-11-21T09:58:08;3.07;;;1.27;;
39620;SDS011;25309;48.686;9.170;2023-11-21T10:00:39;2.60;;;1.50;;
39620;SDS011;25309;48.686;9.170;2023-11-21T10:03:07;1.30;;;0.87;;
39620;SDS011;25309;48.686;9.170;2023-11-21T10:05:35;1.23;;;0.90;;
39620;SDS011;25309;48.686;9.170;2023-11-21T10:08:06;1.70;;;0.90;;
39620;SDS011;25309;48.686;9.170;2023-11-21T10:10:36;1.70;;;1.20;;
39620;SDS011;25309;48.686;9.170;2023-11-21T10:13:05;1.67;;;1.00;;
39620;SDS011;25309;48.686;9.170;2023-11-21T10:15:36;1.00;;;0.80;;
39620;SDS011;25309;48.686;9.170;2023-11-21T10:18:04;1.07;;;0.60;;
39620;SDS011;25309;48.686;9.170;2023-11-21T10:20:33;1.50;;;1.20;;
39620;SDS011;25309;48.686;9.170;2023-11-21T10:23:00;1.27;;;1.00;;
39620;SDS011;25309;48.686;9.170;2023-11-21T10:25:32;2.10;;;1.43;;
39620;SDS011;25309;48.686;9.170;2023-11-21T10:27:59;1.37;;;0.70;;
39620;SDS011;25309;48.686;9.170;2023-11-21T10:30:32;0.73;;;0.70;;
39620;SDS011;25309;48.686;9.170;2023-11-21T10:32:59;1.07;;;0.87;;
39620;SDS011;25309;48.686;9.170;2023-11-21T10:35:38;2.37;;;1.00;;
39620;SDS011;25309;48.686;9.170;2023-11-21T10:38:13;2.03;;;0.90;;
39620;SDS011;25309;48.686;9.170;2023-11-21T10:40:43;1.50;;;1.10;;
39620;SDS011;25309;48.686;9.170;2023-11-21T10:43:11;2.30;;;1.17;;
39620;SDS011;25309;48.686;9.170;2023-11-21T10:45:39;1.40;;;1.23;;
39620;SDS011;25309;48.686;9.170;2023-11-21T10:48:07;1.70;;;1.10;;
39620;SDS011;25309;48.686;9.170;2023-11-21T10:50:34;2.20;;;1.20;;
39620;SDS011;25309;48.686;9.170;2023-11-21T10:53:05;1.80;;;1.40;;
39620;SDS011;25309;48.686;9.170;2023-11-21T10:55:32;2.60;;;1.30;;
39620;SDS011;25309;48.686;9.170;2023-11-21T10:58:02;0.90;;;0.83;;
39620;SDS011;25309;48.686;9.170;2023-11-21T11:00:31;6.20;;;2.57;;
39620;SDS011;25309;48.686;9.170;2023-11-21T11:02:59;1.80;;;1.37;;
39620;SDS011;25309;48.686;9.170;2023-11-21T11:05:28;2.17;;;1.17;;
39620;SDS011;25309;48.686;9.170;2023-11-21T11:07:57;1.63;;;1.00;;
39620;SDS011;25309;48.686;9.170;2023-11-21T11:10:28;2.97;;;1.03;;
39620;SDS011;25309;48.686;9.170;2023-11-21T11:12:56;1.00;;;0.83;;
39620;SDS011;25309;48.686;9.170;2023-11-21T11:15:25;1.37;;;1.00;;
39620;SDS011;25309;48.686;9.170;2023-11-21T11:17:54;2.23;;;1.30;;
39620;SDS011;25309;48.686;9.170;2023-11-21T11:20:25;1.50;;;1.20;;
39620;SDS011;25309;48.686;9.170;2023-11-21T11:22:59;1.93;;;1.30;;
39620;SDS011;25309;48.686;9.170;2023-11-21T11:25:52;1.27;;;0.97;;
39620;SDS011;25309;48.686;9.170;2023-11-21T11:28:29;2.13;;;1.00;;
39620;SDS011;25309;48.686;9.170;2023-11-21T11:31:05;0.80;;;0.80;;
39620;SDS011;25309;48.686;9.170;2023-11-21T11:33:42;0.80;;;0.80;;
39620;SDS011;25309;48.686;9.170;2023-11-21T11:36:16;1.80;;;0.90;;
39620;SDS011;25309;48.686;9.170;2023-11-21T11:38:48;1.73;;;1.40;;
39620;SDS011;25309;48.686;9.170;2023-11-21T11:41:23;3.33;;;1.70;;
39620;SDS011;25309;48.686;9.170;2023-11-21T11:43:52;1.13;;;0.90;;
39620;SDS011;25309;48.686;9.170;2023-11-21T11:46:20;1.23;;;1.00;;
39620;SDS011;25309;48.686;9.170;2023-11-21T11:49:08;1.23;;;1.00;;
39620;SDS011;25309;48.686;9.170;2023-11-21T11:51:35;1.27;;;1.10;;
39620;SDS011;25309;48.686;9.170;2023-11-21T11:54:05;1.37;;;0.87;;
39620;SDS011;25309;48.686;9.170;2023-11-21T11:56:33;1.47;;;1.10;;
39620;SDS011;25309;48.686;9.170;2023-11-21T11:59:02;1.60;;;0.90;;
39620;SDS011;25309;48.686;9.170;2023-11-21T12:01:32;1.80;;;1.10;;
39620;SDS011;25309;48.686;9.170;2023-11-21T12:06:50;1.83;;;1.30;;
39620;SDS011;25309;48.686;9.170;2023-11-21T12:09:19;1.23;;;1.00;;
39620;SDS011;25309;48.686;9.170;2023-11-21T12:11:48;1.10;;;1.00;;
39620;SDS011;25309;48.686;9.170;2023-11-21T12:14:16;1.13;;;0.93;;
39620;SDS011;25309;48.686;9.170;2023-11-21T12:16:45;1.63;;;1.10;;
39620;SDS011;25309;48.686;9.170;2023-11-21T12:19:14;2.73;;;1.40;;
39620;SDS011;25309;48.686;9.170;2023-11-21T12:21:41;1.87;;;1.07;;
39620;SDS011;25309;48.686;9.170;2023-11-21T12:24:09;1.07;;;0.97;;
39620;SDS011;25309;48.686;9.170;2023-11-21T12:26:36;1.97;;;1.33;;
39620;SDS011;25309;48.686;9.170;2023-11-21T12:29:03;3.03;;;1.60;;
39620;SDS011;25309;48.686;9.170;2023-11-21T12:31:30;2.37;;;1.43;;
39620;SDS011;25309;48.686;9.170;2023-11-21T12:33:59;2.90;;;1.50;;
39620;SDS011;25309;48.686;9.170;2023-11-21T12:36:26;2.53;;;1.23;;
39620;SDS011;25309;48.686;9.170;2023-11-21T12:38:55;2.43;;;1.30;;
39620;SDS011;25309;48.686;9.170;2023-11-21T12:41:22;1.63;;;1.30;;
39620;SDS011;25309;48.686;9.170;2023-11-21T12:43:49;1.97;;;1.30;;
39620;SDS011;25309;48.686;9.170;2023-11-21T12:46:16;1.87;;;1.57;;
39620;SDS011;25309;48.686;9.170;2023-11-21T12:48:44;1.57;;;1.40;;
39620;SDS011;25309;48.686;9.170;2023-11-21T12:51:15;1.33;;;1.17;;
39620;SDS011;25309;48.686;9.170;2023-11-21T12:53:42;1.70;;;1.30;;
39620;SDS011;25309;48.686;9.170;2023-11-21T12:56:10;2.37;;;1.20;;
39620;SDS011;25309;48.686;9.170;2023-11-21T12:58:38;1.50;;;1.17;;
39620;SDS011;25309;48.686;9.170;2023-11-21T13:01:12;1.50;;;1.27;;
39620;SDS011;25309;48.686;9.170;2023-11-21T13:03:46;1.63;;;1.10;;
39620;SDS011;25309;48.686;9.170;2023-11-21T13:06:16;2.50;;;1.60;;
39620;SDS011;25309;48.686;9.170;2023-11-21T13:08:44;2.07;;;1.37;;
39620;SDS011;25309;48.686;9.170;2023-11-21T13:11:11;2.20;;;1.30;;
39620;SDS011;25309;48.686;9.170;2023-11-21T13:13:41;1.83;;;1.50;;
39620;SDS011;25309;48.686;9.170;2023-11-21T13:16:12;1.90;;;1.60;;
39620;SDS011;25309;48.686;9.170;2023-11-21T13:18:39;1.90;;;1.60;;
39620;SDS011;25309;48.686;9.170;2023-11-21T13:21:08;3.00;;;2.20;;
39620;SDS011;25309;48.686;9.170;2023-11-21T13:23:40;3.20;;;2.00;;
39620;SDS011;25309;48.686;9.170;2023-11-21T13:26:08;3.77;;;2.00;;
39620;SDS011;25309;48.686;9.170;2023-11-21T13:28:36;4.00;;;2.00;;
39620;SDS011;25309;48.686;9.170;2023-11-21T13:31:05;1.70;;;1.53;;
39620;SDS011;25309;48.686;9.170;2023-11-21T13:33:37;2.03;;;1.50;;
39620;SDS011;25309;48.686;9.170;2023-11-21T13:36:05;1.40;;;1.27;;
39620;SDS011;25309;48.686;9.170;2023-11-21T13:38:36;1.67;;;1.23;;
39620;SDS011;25309;48.686;9.170;2023-11-21T13:41:09;1.33;;;1.13;;
39620;SDS011;25309;48.686;9.170;2023-11-21T13:43:39;3.03;;;1.30;;
39620;SDS011;25309;48.686;9.170;2023-11-21T13:46:06;2.63;;;1.57;;
39620;SDS011;25309;48.686;9.170;2023-11-21T13:48:41;2.20;;;1.33;;
39620;SDS011;25309;48.686;9.170;2023-11-21T13:51:09;1.43;;;1.30;;
39620;SDS011;25309;48.686;9.170;2023-11-21T13:53:44;2.30;;;1.53;;
39620;SDS011;25309;48.686;9.170;2023-11-21T13:56:15;1.40;;;1.30;;
39620;SDS011;25309;48.686;9.170;2023-11-21T13:58:50;1.83;;;1.10;;
39620;SDS011;25309;48.686;9.170;2023-11-21T14:01:18;2.57;;;0.90;;
39620;SDS011;25309;48.686;9.170;2023-11-21T14:03:58;0.60;;;0.60;;
39620;SDS011;25309;48.686;9.170;2023-11-21T14:06:39;0.57;;;0.57;;
39620;SDS011;25309;48.686;9.170;2023-11-21T14:09:14;1.90;;;1.00;;
39620;SDS011;25309;48.686;9.170;2023-11-21T14:11:50;2.63;;;1.30;;
39620;SDS011;25309;48.686;9.170;2023-11-21T14:14:18;1.80;;;1.00;;
39620;SDS011;25309;48.686;9.170;2023-11-21T14:16:46;1.50;;;0.60;;
39620;SDS011;25309;48.686;9.170;2023-11-21T14:19:14;0.67;;;0.67;;
39620;SDS011;25309;48.686;9.170;2023-11-21T14:21:44;3.47;;;1.00;;
39620;SDS011;25309;48.686;9.170;2023-11-21T14:24:12;1.17;;;0.90;;
39620;SDS011;25309;48.686;9.170;2023-11-21T14:26:40;0.87;;;0.87;;
39620;SDS011;25309;48.686;9.170;2023-11-21T14:29:09;1.23;;;1.00;;
39620;SDS011;25309;48.686;9.170;2023-11-21T14:31:40;1.50;;;1.13;;
39620;SDS011;25309;48.686;9.170;2023-11-21T14:34:07;1.93;;;1.40;;
39620;SDS011;25309;48.686;9.170;2023-11-21T14:36:34;1.67;;;1.00;;
39620;SDS011;25309;48.686;9.170;2023-11-21T14:39:03;2.37;;;1.50;;
39620;SDS011;25309;48.686;9.170;2023-11-21T14:41:35;3.03;;;1.70;;
39620;SDS011;25309;48.686;9.170;2023-11-21T14:44:04;3.57;;;1.70;;
39620;SDS011;25309;48.686;9.170;2023-11-21T14:46:35;4.40;;;2.10;;
39620;SDS011;25309;48.686;9.170;2023-11-21T14:49:04;5.30;;;2.50;;
39620;SDS011;25309;48.686;9.170;2023-11-21T14:51:46;6.27;;;2.13;;
39620;SDS011;25309;48.686;9.170;2023-11-21T14:54:47;3.53;;;2.03;;
39620;SDS011;25309;48.686;9.170;2023-11-21T14:57:24;2.80;;;2.10;;
39620;SDS011;25309;48.686;9.170;2023-11-21T14:59:53;2.87;;;1.70;;